Wauregan, CT (06387)

4:09 PM EDT on September 02, 2015 (GMT -0400)
Allen Hill Road | | Change Station
CLOSE
Current Station
Personal Weather Station
Location: Brooklyn, CT
Elevation: 341 ft
Nearby Weather Stations

Elev 341 ft 41.78 °N, 71.92 °W | Updated 27 seconds ago

Clear
Clear
87.9 °F
Feels Like 90 °F
N
4.0
Wind Variable Wind from NW
Gusts 10.0 mph

Today
High -- | Low -- °F
--% Chance of Precip.
Yesterday
High -- | Low -- °F
Precip. -- in
6:14 AM 7:19 PM
Waning Gibbous, 77% visible
Pressure 29.90 in
Visibility 10.0 miles
Clouds Clear
Heat Index 90 °F
Dew Point 66 °F
Humidity 48%
Rainfall 0.00 in
Snow Depth Not available.
UV 5 out of 12
Pollen 8.70 out of 12
Air Quality Not available.
Flu Activity Not available.
METAR KIJD 021952Z AUTO 23007KT 10SM CLR 32/16 A2990 RMK AO2 SLP124 T03220156
Pressure 29.90 in
Visibility 10.0 miles
Clouds Clear
Heat Index 90 °F
Dew Point 66 °F
Humidity 48%
Rainfall 0.00 in
Snow Depth Not available.
UV 5 out of 12
Pollen 8.70 out of 12
Air Quality Not available.
Flu Activity Not available.
METAR KIJD 021952Z AUTO 23007KT 10SM CLR 32/16 A2990 RMK AO2 SLP124 T03220156

10-Day Weather Forecast

×

Almanac

Astronomy

Sep. 02, 2015 Rise Set
Actual Time
Civil Twilight
Nautical Twilight
Astronomical Twilight
Moon
Length of Visible Light
Length of Day
Tomorrow will be .
, % of the Moon is Illuminated

Today's Extremes

State Highs State Lows

Community

WunderPhotos

Upload Photos

1,851,804 photos uploaded!

WunderBlogs® & News

Nearby

Air Quality

  Air Quality AQ Index Pollutant
Not available.

Snow Depth

Station Depth Elevation

Earthquake Activity

City Distance Mag. Time & Date
Minimum magnitude displayed is 2.5.

Coastal Water Temperatures

Place Temperature

Stations

Nearby Weather Stations

Station Location Temp. Windchill Dew Point Humidity Wind Precip. Elev Updated Type